Time;durP1;ratioP1;P1;durP2;ratioP2;P2;SDS_P1;SDS_P2;PMS_P1;PMS_P2;Temp;Humidity;BMP_temperature;BMP_pressure;BME280_temperature;BME280_humidity;BME280_pressure;Samples;Min_cycle;Max_cycle;Signal;HPM_P1;HPM_P2
2024/01/05 00:01:57;;;;;;;;;;;19.80;69.50;;;;;;7313576;19;9480;-55
2024/01/05 00:04:26;;;;;;;;;;;19.80;69.70;;;;;;7315043;19;10712;-54
2024/01/05 00:06:54;;;;;;;;;;;19.90;69.90;;;;;;7307530;19;10352;-56
2024/01/05 00:09:23;;;;;;;;;;;19.90;70.00;;;;;;7310345;19;9491;-57
2024/01/05 00:11:56;;;;;;;;;;;20.00;70.10;;;;;;7317321;19;9639;-55
2024/01/05 00:14:25;;;;;;;;;;;20.00;70.30;;;;;;7311533;19;9457;-55
2024/01/05 00:16:58;;;;;;;;;;;20.10;70.40;;;;;;7313267;19;9492;-56
2024/01/05 00:19:27;;;;;;;;;;;20.10;70.40;;;;;;7314289;19;9165;-55
2024/01/05 00:21:56;;;;;;;;;;;20.10;70.30;;;;;;7314388;19;9220;-54
2024/01/05 00:24:25;;;;;;;;;;;20.20;70.70;;;;;;7300356;19;9645;-55
2024/01/05 00:26:59;;;;;;;;;;;20.20;70.50;;;;;;7308087;19;10663;-55
2024/01/05 00:29:27;;;;;;;;;;;20.30;70.70;;;;;;7313352;19;9799;-54
2024/01/05 00:31:56;;;;;;;;;;;20.30;71.10;;;;;;7315793;19;11059;-54
2024/01/05 00:34:25;;;;;;;;;;;20.30;71.30;;;;;;7318766;19;9481;-54
2024/01/05 00:36:54;;;;;;;;;;;20.20;71.50;;;;;;7317024;19;9529;-56
2024/01/05 00:39:23;;;;;;;;;;;20.20;71.90;;;;;;7317368;19;9561;-54
2024/01/05 00:41:52;;;;;;;;;;;20.20;71.90;;;;;;7315107;19;9401;-54
2024/01/05 00:44:23;;;;;;;;;;;20.20;72.50;;;;;;7313626;19;9687;-55
2024/01/05 00:46:52;;;;;;;;;;;20.20;72.80;;;;;;7313809;19;9439;-54
2024/01/05 00:49:22;;;;;;;;;;;20.20;72.90;;;;;;7310738;19;9608;-54
2024/01/05 00:51:51;;;;;;;;;;;20.10;73.30;;;;;;7316581;19;9470;-55
2024/01/05 00:54:20;;;;;;;;;;;20.00;73.60;;;;;;7315249;19;9432;-55
2024/01/05 00:56:49;;;;;;;;;;;20.00;73.80;;;;;;7315190;19;9633;-54
2024/01/05 00:59:24;;;;;;;;;;;20.00;74.20;;;;;;7312419;19;9434;-54
2024/01/05 01:02:13;;;;;;;;;;;19.90;74.30;;;;;;7313186;19;9516;-55
2024/01/05 01:04:41;;;;;;;;;;;19.80;74.50;;;;;;7315695;19;9168;-54
2024/01/05 01:07:10;;;;;;;;;;;19.80;74.80;;;;;;7315531;19;9682;-54
2024/01/05 01:09:39;;;;;;;;;;;19.70;74.90;;;;;;7313828;19;9506;-59
2024/01/05 01:12:08;;;;;;;;;;;19.60;75.00;;;;;;7317311;19;9433;-55
2024/01/05 01:14:40;;;;;;;;;;;19.60;75.20;;;;;;7315245;19;9233;-54
2024/01/05 01:17:29;;;;;;;;;;;19.50;75.20;;;;;;7312895;19;9261;-54
2024/01/05 01:19:58;;;;;;;;;;;19.50;75.70;;;;;;7313747;19;9351;-54
2024/01/05 01:22:27;;;;;;;;;;;19.40;75.90;;;;;;7314125;19;9656;-54
2024/01/05 01:24:56;;;;;;;;;;;19.40;76.00;;;;;;7320893;19;9465;-54
2024/01/05 01:27:25;;;;;;;;;;;19.30;76.00;;;;;;7320435;19;9458;-55
2024/01/05 01:29:57;;;;;;;;;;;19.30;76.10;;;;;;7320815;19;9688;-54
2024/01/05 01:32:26;;;;;;;;;;;19.20;76.30;;;;;;7321620;19;9991;-54
2024/01/05 01:34:55;;;;;;;;;;;19.20;76.40;;;;;;7321101;19;9244;-55
2024/01/05 01:37:24;;;;;;;;;;;19.10;76.50;;;;;;7321097;19;9645;-55
2024/01/05 01:39:53;;;;;;;;;;;19.10;76.60;;;;;;7316238;19;9593;-56
2024/01/05 01:42:22;;;;;;;;;;;19.00;76.70;;;;;;7323093;19;9641;-56
2024/01/05 01:44:51;;;;;;;;;;;19.00;76.90;;;;;;7320560;19;9269;-55
2024/01/05 01:47:23;;;;;;;;;;;19.00;77.00;;;;;;7321525;19;9504;-55
2024/01/05 01:49:53;;;;;;;;;;;18.90;76.90;;;;;;7317185;19;9498;-55
2024/01/05 01:52:22;;;;;;;;;;;18.90;77.00;;;;;;7321088;19;9578;-56
2024/01/05 01:54:52;;;;;;;;;;;18.80;77.40;;;;;;7320299;19;9735;-55
2024/01/05 01:57:22;;;;;;;;;;;18.80;77.30;;;;;;7318061;19;9605;-55
2024/01/05 01:59:51;;;;;;;;;;;18.80;77.30;;;;;;7319006;19;9625;-56
2024/01/05 02:02:23;;;;;;;;;;;18.80;77.50;;;;;;7321744;19;9205;-55
2024/01/05 02:04:54;;;;;;;;;;;18.70;77.50;;;;;;7319946;19;10044;-55
2024/01/05 02:07:24;;;;;;;;;;;18.70;77.60;;;;;;7320713;19;9306;-55
2024/01/05 02:09:53;;;;;;;;;;;18.70;77.70;;;;;;7314526;19;9451;-55
2024/01/05 02:12:22;;;;;;;;;;;18.60;77.60;;;;;;7322125;19;10584;-55
2024/01/05 02:14:51;;;;;;;;;;;18.60;77.70;;;;;;7320523;19;9645;-55
2024/01/05 02:17:34;;;;;;;;;;;18.60;77.80;;;;;;7318151;19;9469;-55
2024/01/05 02:20:04;;;;;;;;;;;18.60;77.70;;;;;;7319386;19;9707;-56
2024/01/05 02:22:37;;;;;;;;;;;18.50;77.80;;;;;;7318254;19;9358;-56
2024/01/05 02:25:10;;;;;;;;;;;18.50;77.90;;;;;;7318982;19;9291;-55
2024/01/05 02:27:39;;;;;;;;;;;18.50;78.00;;;;;;7319125;19;9584;-55
2024/01/05 02:30:09;;;;;;;;;;;18.50;78.10;;;;;;7317288;19;9416;-56
2024/01/05 02:32:38;;;;;;;;;;;18.50;77.90;;;;;;7319882;19;9452;-56
2024/01/05 02:35:07;;;;;;;;;;;18.40;78.10;;;;;;7313305;19;9476;-55
2024/01/05 02:37:36;;;;;;;;;;;18.40;78.10;;;;;;7321324;19;9513;-55
2024/01/05 02:40:09;;;;;;;;;;;18.40;78.40;;;;;;7317082;19;9653;-56
2024/01/05 02:42:38;;;;;;;;;;;18.40;78.40;;;;;;7318257;19;9269;-55
2024/01/05 02:45:07;;;;;;;;;;;18.30;78.40;;;;;;7316688;19;9253;-56
2024/01/05 02:47:36;;;;;;;;;;;18.40;78.30;;;;;;7318844;19;9356;-55
2024/01/05 02:50:07;;;;;;;;;;;18.30;78.40;;;;;;7314544;19;9278;-55
2024/01/05 02:52:36;;;;;;;;;;;18.30;78.50;;;;;;7319619;19;9489;-55
2024/01/05 02:55:09;;;;;;;;;;;18.30;78.60;;;;;;7318112;19;9761;-57
2024/01/05 02:57:38;;;;;;;;;;;18.30;78.60;;;;;;7317897;19;9485;-55
2024/01/05 03:00:11;;;;;;;;;;;18.20;78.50;;;;;;7316674;19;9484;-56
2024/01/05 03:03:00;;;;;;;;;;;18.20;78.50;;;;;;7314623;19;9544;-57
2024/01/05 03:05:29;;;;;;;;;;;18.20;78.50;;;;;;7319186;19;9568;-56
2024/01/05 03:07:58;;;;;;;;;;;18.20;78.50;;;;;;7319189;19;9521;-55
2024/01/05 03:10:30;;;;;;;;;;;18.20;78.50;;;;;;7317696;19;10651;-55
2024/01/05 03:12:59;;;;;;;;;;;18.20;78.70;;;;;;7319374;19;9459;-56
2024/01/05 03:15:28;;;;;;;;;;;18.10;78.40;;;;;;7319775;19;9169;-56
2024/01/05 03:17:54;;;;;;;;;;;18.10;78.50;;;;;;7319556;19;9487;-55
2024/01/05 03:20:23;;;;;;;;;;;18.10;79.20;;;;;;7313970;19;9807;-55
2024/01/05 03:22:52;;;;;;;;;;;18.10;78.50;;;;;;7316808;19;9343;-55
2024/01/05 03:25:21;;;;;;;;;;;18.10;78.80;;;;;;7314180;19;9631;-57
2024/01/05 03:27:52;;;;;;;;;;;18.00;78.70;;;;;;7318046;19;9469;-56
2024/01/05 03:30:22;;;;;;;;;;;18.10;78.60;;;;;;7317561;19;9157;-57
2024/01/05 03:32:51;;;;;;;;;;;18.00;78.60;;;;;;7317539;19;11367;-55
2024/01/05 03:35:19;;;;;;;;;;;18.00;78.70;;;;;;7318016;19;9482;-55
2024/01/05 03:37:49;;;;;;;;;;;18.00;78.70;;;;;;7317812;19;10194;-55
2024/01/05 03:40:18;;;;;;;;;;;18.00;78.70;;;;;;7314009;19;9500;-55
2024/01/05 03:42:47;;;;;;;;;;;18.00;78.80;;;;;;7317193;19;9441;-55
2024/01/05 03:45:39;;;;;;;;;;;17.90;78.80;;;;;;7316271;19;9563;-56
2024/01/05 03:48:09;;;;;;;;;;;17.90;78.90;;;;;;7317391;19;9470;-56
2024/01/05 03:50:38;;;;;;;;;;;17.90;78.90;;;;;;7314921;19;9585;-55
2024/01/05 03:53:07;;;;;;;;;;;17.90;78.90;;;;;;7316522;19;9219;-55
2024/01/05 03:55:59;;;;;;;;;;;17.90;79.00;;;;;;7314954;19;9554;-55
2024/01/05 03:58:28;;;;;;;;;;;17.90;79.00;;;;;;7316211;19;10370;-56
2024/01/05 04:01:00;;;;;;;;;;;17.90;78.90;;;;;;7317268;19;10703;-56
2024/01/05 04:03:29;;;;;;;;;;;17.90;78.90;;;;;;7317829;19;9765;-55
2024/01/05 04:05:58;;;;;;;;;;;17.80;78.90;;;;;;7317083;19;9514;-56
2024/01/05 04:08:27;;;;;;;;;;;17.80;78.90;;;;;;7317150;19;9473;-55
2024/01/05 04:10:56;;;;;;;;;;;17.80;78.90;;;;;;7308581;19;9466;-55
2024/01/05 04:13:25;;;;;;;;;;;17.80;78.80;;;;;;7315422;19;9433;-55
2024/01/05 04:15:54;;;;;;;;;;;17.80;79.20;;;;;;7316138;19;9465;-55
2024/01/05 04:18:25;;;;;;;;;;;17.80;79.10;;;;;;7317582;19;9502;-55
2024/01/05 04:20:54;;;;;;;;;;;17.80;79.00;;;;;;7313870;19;9272;-55
2024/01/05 04:23:23;;;;;;;;;;;17.70;78.80;;;;;;7316737;19;9594;-56
2024/01/05 04:25:52;;;;;;;;;;;17.80;78.80;;;;;;7317456;19;9411;-55
2024/01/05 04:28:21;;;;;;;;;;;17.90;79.00;;;;;;7316564;19;9678;-55
2024/01/05 04:30:50;;;;;;;;;;;17.90;78.90;;;;;;7313745;19;10263;-55
2024/01/05 04:33:20;;;;;;;;;;;18.00;78.90;;;;;;7316350;19;9498;-55
2024/01/05 04:36:15;;;;;;;;;;;18.00;78.70;;;;;;7313661;19;9572;-55
2024/01/05 04:38:44;;;;;;;;;;;18.10;78.50;;;;;;7316739;19;9242;-55
2024/01/05 04:41:16;;;;;;;;;;;18.20;78.30;;;;;;7316908;19;10411;-55
2024/01/05 04:43:46;;;;;;;;;;;18.30;78.10;;;;;;7318158;19;9461;-55
2024/01/05 04:46:16;;;;;;;;;;;18.40;77.60;;;;;;7316789;19;9668;-55
2024/01/05 04:48:45;;;;;;;;;;;18.50;77.60;;;;;;7318066;19;9422;-56
2024/01/05 04:51:17;;;;;;;;;;;18.50;77.30;;;;;;7315987;19;9343;-55
2024/01/05 04:53:46;;;;;;;;;;;18.60;77.10;;;;;;7317187;19;9318;-55
2024/01/05 04:56:16;;;;;;;;;;;18.70;76.80;;;;;;7313053;19;9465;-59
2024/01/05 04:58:44;;;;;;;;;;;18.80;76.70;;;;;;7315539;19;9588;-55
2024/01/05 05:01:13;;;;;;;;;;;18.80;76.60;;;;;;7320241;19;9331;-56
2024/01/05 05:03:42;;;;;;;;;;;18.80;77.10;;;;;;7320964;19;9587;-56
2024/01/05 05:06:11;;;;;;;;;;;18.90;76.50;;;;;;7321634;19;9489;-55
2024/01/05 05:08:43;;;;;;;;;;;18.80;76.50;;;;;;7321582;19;9645;-56
2024/01/05 05:11:12;;;;;;;;;;;18.90;76.40;;;;;;7322664;19;9163;-55
2024/01/05 05:13:41;;;;;;;;;;;18.80;76.60;;;;;;7323097;19;9135;-55
2024/01/05 05:16:10;;;;;;;;;;;18.80;76.60;;;;;;7322016;19;9459;-55
2024/01/05 05:18:39;;;;;;;;;;;18.80;76.60;;;;;;7323378;19;9226;-55
2024/01/05 05:21:09;;;;;;;;;;;18.70;76.60;;;;;;7323146;19;9632;-55
2024/01/05 05:23:38;;;;;;;;;;;18.70;76.60;;;;;;7324059;19;9447;-57
2024/01/05 05:26:10;;;;;;;;;;;18.70;76.60;;;;;;7323399;19;9221;-55
2024/01/05 05:28:39;;;;;;;;;;;18.60;76.70;;;;;;7322601;19;9626;-56
2024/01/05 05:31:08;;;;;;;;;;;18.60;76.70;;;;;;7323644;19;9454;-55
2024/01/05 05:33:37;;;;;;;;;;;18.60;76.70;;;;;;7322774;19;9746;-55
2024/01/05 05:36:06;;;;;;;;;;;18.50;76.80;;;;;;7322948;19;9537;-55
2024/01/05 05:38:35;;;;;;;;;;;18.50;76.80;;;;;;7322726;19;9179;-55
2024/01/05 05:41:04;;;;;;;;;;;18.40;76.80;;;;;;7322745;19;10670;-55
2024/01/05 05:43:35;;;;;;;;;;;18.40;76.70;;;;;;7323511;19;9605;-56
2024/01/05 05:46:04;;;;;;;;;;;18.40;76.80;;;;;;7320117;19;9864;-55
2024/01/05 05:48:33;;;;;;;;;;;18.30;76.80;;;;;;7321393;19;9600;-55
2024/01/05 05:51:04;;;;;;;;;;;18.30;76.80;;;;;;7322503;19;9627;-56
2024/01/05 05:53:53;;;;;;;;;;;18.30;76.90;;;;;;7322819;19;10247;-55
2024/01/05 05:56:22;;;;;;;;;;;18.20;76.90;;;;;;7319494;19;9528;-56
2024/01/05 05:58:54;;;;;;;;;;;18.20;77.10;;;;;;7322028;19;10454;-55
2024/01/05 06:01:23;;;;;;;;;;;18.10;77.20;;;;;;7321992;19;9464;-56
2024/01/05 06:03:52;;;;;;;;;;;18.10;77.30;;;;;;7320939;19;9475;-55
2024/01/05 06:06:23;;;;;;;;;;;18.10;77.20;;;;;;7320896;19;10687;-56
2024/01/05 06:08:54;;;;;;;;;;;18.00;77.10;;;;;;7322669;19;9593;-56
2024/01/05 06:11:26;;;;;;;;;;;18.00;77.30;;;;;;7322038;19;10680;-55
2024/01/05 06:13:59;;;;;;;;;;;18.00;77.30;;;;;;7321827;19;9637;-55
2024/01/05 06:16:30;;;;;;;;;;;18.00;77.30;;;;;;7319166;19;9284;-56
2024/01/05 06:19:00;;;;;;;;;;;17.90;77.60;;;;;;7321430;19;9435;-55
2024/01/05 06:21:29;;;;;;;;;;;17.90;77.70;;;;;;7320772;19;9292;-56
2024/01/05 06:23:59;;;;;;;;;;;17.90;77.90;;;;;;7322930;19;9511;-55
2024/01/05 06:26:28;;;;;;;;;;;17.90;77.60;;;;;;7319801;19;9481;-55
2024/01/05 06:28:59;;;;;;;;;;;17.90;77.60;;;;;;7319606;19;9606;-56
2024/01/05 06:31:48;;;;;;;;;;;17.90;77.80;;;;;;7320314;19;9828;-55
2024/01/05 06:34:18;;;;;;;;;;;17.90;77.90;;;;;;7319857;19;9470;-56
2024/01/05 06:36:47;;;;;;;;;;;18.00;77.80;;;;;;7321627;19;9552;-55
2024/01/05 06:39:16;;;;;;;;;;;18.00;77.70;;;;;;7320973;19;9339;-55
2024/01/05 06:41:45;;;;;;;;;;;18.10;77.70;;;;;;7322238;19;9344;-55
2024/01/05 06:44:16;;;;;;;;;;;18.10;77.50;;;;;;7320113;19;9529;-55
2024/01/05 06:46:45;;;;;;;;;;;18.20;77.00;;;;;;7321290;19;9792;-55
2024/01/05 06:49:14;;;;;;;;;;;18.30;77.00;;;;;;7321811;19;9727;-56
2024/01/05 06:51:44;;;;;;;;;;;18.30;76.70;;;;;;7319525;19;9686;-55
2024/01/05 06:54:14;;;;;;;;;;;18.40;76.50;;;;;;7319227;19;9238;-55
2024/01/05 06:56:44;;;;;;;;;;;18.50;77.00;;;;;;7319717;19;9384;-55
2024/01/05 06:59:16;;;;;;;;;;;18.60;76.30;;;;;;7319735;19;9541;-56
2024/01/05 07:01:45;;;;;;;;;;;18.70;76.20;;;;;;7321490;19;9464;-55
2024/01/05 07:04:14;;;;;;;;;;;18.70;75.90;;;;;;7318072;19;9518;-56
2024/01/05 07:06:44;;;;;;;;;;;18.80;75.70;;;;;;7322206;19;9569;-54
2024/01/05 07:09:14;;;;;;;;;;;18.80;75.60;;;;;;7320009;19;9330;-55
2024/01/05 07:11:43;;;;;;;;;;;18.80;75.30;;;;;;7319409;19;9039;-56
2024/01/05 07:14:12;;;;;;;;;;;18.90;75.40;;;;;;7317680;19;8948;-55
2024/01/05 07:16:43;;;;;;;;;;;18.90;75.20;;;;;;7318026;19;9426;-55
2024/01/05 07:19:12;;;;;;;;;;;18.90;75.20;;;;;;7317459;19;9396;-55
2024/01/05 07:21:43;;;;;;;;;;;18.90;75.10;;;;;;7315151;19;9538;-56
2024/01/05 07:24:15;;;;;;;;;;;18.90;75.20;;;;;;7319851;19;9451;-55
2024/01/05 07:26:44;;;;;;;;;;;18.80;75.20;;;;;;7318432;19;9427;-56
2024/01/05 07:29:14;;;;;;;;;;;18.80;75.40;;;;;;7317533;19;9400;-56
2024/01/05 07:31:46;;;;;;;;;;;18.80;75.40;;;;;;7318807;19;9473;-55
2024/01/05 07:34:14;;;;;;;;;;;18.80;75.50;;;;;;7318657;19;9695;-56
2024/01/05 07:36:44;;;;;;;;;;;18.70;75.40;;;;;;7318938;19;9561;-55
2024/01/05 07:39:15;;;;;;;;;;;18.70;75.60;;;;;;7319003;19;9472;-55
2024/01/05 07:41:44;;;;;;;;;;;18.60;75.60;;;;;;7315816;19;9538;-56
2024/01/05 07:44:13;;;;;;;;;;;18.60;75.60;;;;;;7316466;19;9505;-56
2024/01/05 07:46:47;;;;;;;;;;;18.50;75.70;;;;;;7317041;19;9253;-56
2024/01/05 07:49:19;;;;;;;;;;;18.50;75.70;;;;;;7320645;19;9521;-56
2024/01/05 07:51:48;;;;;;;;;;;18.50;75.70;;;;;;7317916;19;9497;-55
2024/01/05 07:54:17;;;;;;;;;;;18.40;75.60;;;;;;7314460;19;9517;-55
2024/01/05 07:56:46;;;;;;;;;;;18.40;75.70;;;;;;7318835;19;9167;-55
2024/01/05 07:59:16;;;;;;;;;;;18.30;75.80;;;;;;7315592;19;9447;-55
2024/01/05 08:01:52;;;;;;;;;;;18.30;75.80;;;;;;7317589;19;9259;-56
2024/01/05 08:04:21;;;;;;;;;;;18.20;76.00;;;;;;7315962;19;9347;-55
2024/01/05 08:06:50;;;;;;;;;;;18.20;76.00;;;;;;7318788;19;9366;-55
2024/01/05 08:09:20;;;;;;;;;;;18.10;76.10;;;;;;7317223;19;9312;-55
2024/01/05 08:11:49;;;;;;;;;;;18.10;76.20;;;;;;7316706;19;9197;-56
2024/01/05 08:14:18;;;;;;;;;;;18.10;76.30;;;;;;7316389;19;9624;-56
2024/01/05 08:16:49;;;;;;;;;;;18.00;76.30;;;;;;7319317;19;9527;-55
2024/01/05 08:19:18;;;;;;;;;;;18.00;76.40;;;;;;7315916;19;9445;-56
2024/01/05 08:21:47;;;;;;;;;;;18.00;76.30;;;;;;7313436;19;9332;-55
2024/01/05 08:24:16;;;;;;;;;;;18.00;76.40;;;;;;7314964;19;9593;-55
2024/01/05 08:26:46;;;;;;;;;;;17.90;76.50;;;;;;7317034;19;9583;-55
2024/01/05 08:29:37;;;;;;;;;;;18.00;76.60;;;;;;7314402;19;9268;-55
2024/01/05 08:32:10;;;;;;;;;;;18.00;76.70;;;;;;7314179;19;9203;-55
2024/01/05 08:34:39;;;;;;;;;;;18.00;76.70;;;;;;7320100;19;9496;-56
2024/01/05 08:37:08;;;;;;;;;;;18.00;76.60;;;;;;7323478;19;9271;-55
2024/01/05 08:39:39;;;;;;;;;;;18.10;76.50;;;;;;7323526;19;9726;-56
2024/01/05 08:42:08;;;;;;;;;;;18.20;76.30;;;;;;7322584;19;9186;-56
2024/01/05 08:44:38;;;;;;;;;;;18.20;76.10;;;;;;7319786;19;9256;-55
2024/01/05 08:47:09;;;;;;;;;;;18.30;75.80;;;;;;7321294;19;10696;-56
2024/01/05 08:49:38;;;;;;;;;;;18.30;75.70;;;;;;7322055;19;9637;-55
2024/01/05 08:52:08;;;;;;;;;;;18.40;75.50;;;;;;7323193;19;9463;-55
2024/01/05 08:54:37;;;;;;;;;;;18.40;75.50;;;;;;7320746;19;9411;-55
2024/01/05 08:57:11;;;;;;;;;;;18.50;75.30;;;;;;7322164;19;9461;-56
2024/01/05 08:59:40;;;;;;;;;;;18.50;75.20;;;;;;7322110;19;9541;-55
2024/01/05 09:02:12;;;;;;;;;;;18.60;75.10;;;;;;7322487;19;9682;-56
2024/01/05 09:04:41;;;;;;;;;;;18.60;74.90;;;;;;7322291;19;9467;-56
2024/01/05 09:07:10;;;;;;;;;;;18.70;74.90;;;;;;7320755;19;9217;-56
2024/01/05 09:09:39;;;;;;;;;;;18.80;74.80;;;;;;7316085;19;9343;-56
2024/01/05 09:12:10;;;;;;;;;;;18.80;74.60;;;;;;7323766;19;9627;-56
2024/01/05 09:14:39;;;;;;;;;;;18.80;74.50;;;;;;7324219;19;9513;-56
2024/01/05 09:17:08;;;;;;;;;;;18.90;74.40;;;;;;7321092;19;9476;-55
2024/01/05 09:19:39;;;;;;;;;;;18.90;74.40;;;;;;7318785;19;10201;-56
2024/01/05 09:22:08;;;;;;;;;;;18.90;74.20;;;;;;7322223;19;9476;-56
2024/01/05 09:24:38;;;;;;;;;;;18.90;74.30;;;;;;7319232;19;9457;-56
2024/01/05 09:27:08;;;;;;;;;;;18.90;74.20;;;;;;7321995;19;9418;-56
2024/01/05 09:29:37;;;;;;;;;;;18.80;74.20;;;;;;7318465;19;9286;-56
2024/01/05 09:32:06;;;;;;;;;;;18.80;74.20;;;;;;7318793;19;9584;-59
2024/01/05 09:34:35;;;;;;;;;;;18.80;74.30;;;;;;7322869;19;9518;-56
2024/01/05 09:37:08;;;;;;;;;;;18.80;74.50;;;;;;7322720;19;9288;-55
2024/01/05 09:39:36;;;;;;;;;;;18.70;74.40;;;;;;7320117;19;9170;-57
2024/01/05 09:42:06;;;;;;;;;;;18.70;74.50;;;;;;7322755;19;9462;-56
2024/01/05 09:44:36;;;;;;;;;;;18.60;74.50;;;;;;7321123;19;9689;-56
2024/01/05 09:47:06;;;;;;;;;;;18.60;74.60;;;;;;7323708;19;10649;-56
2024/01/05 09:49:39;;;;;;;;;;;18.50;74.50;;;;;;7321058;19;10414;-56
2024/01/05 09:52:15;;;;;;;;;;;18.50;74.70;;;;;;7322008;19;10369;-56
2024/01/05 09:54:46;;;;;;;;;;;18.50;74.70;;;;;;7320287;19;9636;-56
2024/01/05 09:57:20;;;;;;;;;;;18.50;74.80;;;;;;7322270;19;9204;-55
2024/01/05 09:59:49;;;;;;;;;;;18.40;74.80;;;;;;7320486;19;9247;-56
2024/01/05 10:02:39;;;;;;;;;;;18.30;74.80;;;;;;7316959;19;9259;-56
2024/01/05 10:05:09;;;;;;;;;;;18.30;74.90;;;;;;7323100;19;9453;-56
2024/01/05 10:07:47;;;;;;;;;;;18.20;74.90;;;;;;7320305;19;9480;-56
2024/01/05 10:10:15;;;;;;;;;;;18.20;74.90;;;;;;7319114;19;9662;-56
2024/01/05 10:12:45;;;;;;;;;;;18.20;75.20;;;;;;7319625;19;10804;-56
2024/01/05 10:15:14;;;;;;;;;;;18.20;75.30;;;;;;7321028;19;9488;-56
2024/01/05 10:17:43;;;;;;;;;;;18.10;75.30;;;;;;7322366;19;9168;-56
2024/01/05 10:20:17;;;;;;;;;;;18.10;75.30;;;;;;7320045;19;9279;-56
2024/01/05 10:22:49;;;;;;;;;;;18.00;75.40;;;;;;7319853;19;9489;-56
2024/01/05 10:25:21;;;;;;;;;;;18.00;75.40;;;;;;7320423;19;9817;-56
2024/01/05 10:27:53;;;;;;;;;;;18.00;75.50;;;;;;7319481;19;9172;-56
2024/01/05 10:30:29;;;;;;;;;;;17.90;75.50;;;;;;7318669;19;9320;-56
2024/01/05 10:33:08;;;;;;;;;;;17.90;75.60;;;;;;7320227;19;9237;-56
2024/01/05 10:35:38;;;;;;;;;;;17.90;75.60;;;;;;7317787;19;9514;-56
2024/01/05 10:38:13;;;;;;;;;;;17.90;75.80;;;;;;7312814;19;9382;-57
2024/01/05 10:40:43;;;;;;;;;;;17.80;76.00;;;;;;7318286;19;9710;-56
2024/01/05 10:43:16;;;;;;;;;;;17.80;76.20;;;;;;7319751;19;9449;-55
2024/01/05 10:45:46;;;;;;;;;;;17.80;76.20;;;;;;7311943;19;9458;-55
2024/01/05 10:48:16;;;;;;;;;;;17.90;76.40;;;;;;7317079;19;9457;-55
2024/01/05 10:50:48;;;;;;;;;;;18.00;76.30;;;;;;7320398;19;9452;-55
2024/01/05 10:53:22;;;;;;;;;;;18.10;76.10;;;;;;7320200;19;9585;-55
2024/01/05 10:55:52;;;;;;;;;;;18.20;75.80;;;;;;7319464;19;9388;-56
2024/01/05 10:58:21;;;;;;;;;;;18.40;75.50;;;;;;7317474;19;9589;-56
2024/01/05 11:00:52;;;;;;;;;;;18.50;75.10;;;;;;7318369;19;9469;-56
2024/01/05 11:03:22;;;;;;;;;;;18.60;75.00;;;;;;7320749;19;9459;-55
2024/01/05 11:05:51;;;;;;;;;;;18.70;74.60;;;;;;7319679;19;9709;-55
2024/01/05 11:08:33;;;;;;;;;;;18.90;74.40;;;;;;7319117;19;9283;-55
2024/01/05 11:11:17;;;;;;;;;;;19.00;74.30;;;;;;7319123;19;9497;-56
2024/01/05 11:14:10;;;;;;;;;;;19.10;74.20;;;;;;7317679;19;9520;-55
2024/01/05 11:17:12;;;;;;;;;;;19.20;74.00;;;;;;7317423;19;9225;-56
2024/01/05 11:20:20;;;;;;;;;;;19.30;73.60;;;;;;7352639;19;9198;-53
2024/01/05 11:22:52;;;;;;;;;;;19.30;73.50;;;;;;7351244;19;9698;-54
2024/01/05 11:25:21;;;;;;;;;;;19.40;73.40;;;;;;7347357;19;9763;-54
2024/01/05 11:27:50;;;;;;;;;;;19.50;73.30;;;;;;7351950;19;9269;-54
2024/01/05 11:30:40;;;;;;;;;;;19.50;73.20;;;;;;7350160;19;10495;-54
2024/01/05 11:33:09;;;;;;;;;;;19.50;73.20;;;;;;7350035;19;9410;-54
2024/01/05 11:35:50;;;;;;;;;;;19.60;73.10;;;;;;7352012;19;10703;-54
2024/01/05 11:38:31;;;;;;;;;;;19.60;73.00;;;;;;7350113;19;9466;-55
2024/01/05 11:41:00;;;;;;;;;;;19.70;73.00;;;;;;7349487;19;9616;-56
2024/01/05 11:43:33;;;;;;;;;;;19.80;73.00;;;;;;7349153;19;10369;-56
2024/01/05 11:46:02;;;;;;;;;;;19.80;72.80;;;;;;7347025;19;9468;-56
2024/01/05 11:48:47;;;;;;;;;;;19.80;72.80;;;;;;7351149;19;9161;-56
2024/01/05 11:51:19;;;;;;;;;;;19.80;72.70;;;;;;7351610;19;9457;-56
2024/01/05 11:53:49;;;;;;;;;;;19.90;72.80;;;;;;7351475;19;9381;-55
2024/01/05 11:56:25;;;;;;;;;;;19.90;72.70;;;;;;7351291;19;9485;-57
2024/01/05 11:58:54;;;;;;;;;;;20.00;72.70;;;;;;7350149;19;9201;-57
2024/01/05 12:01:23;;;;;;;;;;;20.00;72.70;;;;;;7349268;19;8944;-56
2024/01/05 12:04:11;;;;;;;;;;;20.00;72.70;;;;;;7271535;19;10230;-57
2024/01/05 12:06:43;;;;;;;;;;;20.00;72.70;;;;;;7348606;19;9336;-57
2024/01/05 12:09:13;;;;;;;;;;;20.00;72.60;;;;;;7348927;19;9495;-56
2024/01/05 12:11:42;;;;;;;;;;;20.10;72.70;;;;;;7350955;19;9415;-57
2024/01/05 12:14:11;;;;;;;;;;;20.10;72.60;;;;;;7351163;19;9808;-57
2024/01/05 12:16:40;;;;;;;;;;;20.10;72.50;;;;;;7345118;19;10837;-56
2024/01/05 12:19:22;;;;;;;;;;;20.10;72.50;;;;;;7349381;19;9525;-54
2024/01/05 12:21:57;;;;;;;;;;;20.20;72.50;;;;;;7348170;19;9435;-56
2024/01/05 12:24:27;;;;;;;;;;;20.20;72.50;;;;;;7343814;19;9365;-56
2024/01/05 12:26:56;;;;;;;;;;;20.20;72.50;;;;;;7345854;19;9590;-57
2024/01/05 12:29:26;;;;;;;;;;;20.20;72.50;;;;;;7341028;19;9276;-57
2024/01/05 12:31:55;;;;;;;;;;;20.20;72.50;;;;;;7312539;19;9267;-56
2024/01/05 12:34:24;;;;;;;;;;;20.10;72.50;;;;;;7318648;19;9505;-56
2024/01/05 12:36:54;;;;;;;;;;;20.10;72.60;;;;;;7319087;19;9465;-56
2024/01/05 12:39:26;;;;;;;;;;;20.10;72.60;;;;;;7320746;19;9559;-56
2024/01/05 12:41:56;;;;;;;;;;;20.00;72.70;;;;;;7310697;19;13463;-56
2024/01/05 12:44:25;;;;;;;;;;;20.00;72.70;;;;;;7310914;19;10673;-56
2024/01/05 12:46:54;;;;;;;;;;;19.90;72.80;;;;;;7313093;19;10289;-57
2024/01/05 12:49:24;;;;;;;;;;;19.90;72.90;;;;;;7317636;19;9306;-56
2024/01/05 12:51:53;;;;;;;;;;;19.80;73.00;;;;;;7311133;19;9461;-56
2024/01/05 12:54:25;;;;;;;;;;;19.80;73.00;;;;;;7319360;19;9669;-57
2024/01/05 12:56:54;;;;;;;;;;;19.70;73.00;;;;;;7321204;19;9773;-56
2024/01/05 12:59:24;;;;;;;;;;;19.70;73.30;;;;;;7319233;19;9328;-56
2024/01/05 13:02:00;;;;;;;;;;;19.70;73.30;;;;;;7320350;19;9497;-56
2024/01/05 13:04:31;;;;;;;;;;;19.60;73.50;;;;;;7319637;19;9035;-56
2024/01/05 13:07:00;;;;;;;;;;;19.60;73.50;;;;;;7318182;19;9321;-55
2024/01/05 13:09:31;;;;;;;;;;;19.60;73.50;;;;;;7319879;19;9082;-56
2024/01/05 13:12:00;;;;;;;;;;;19.60;73.50;;;;;;7320803;19;9513;-56
2024/01/05 13:14:29;;;;;;;;;;;19.60;73.40;;;;;;7320394;19;10558;-58
2024/01/05 13:17:00;;;;;;;;;;;19.60;73.60;;;;;;7319362;19;9469;-56
2024/01/05 13:19:29;;;;;;;;;;;19.60;73.60;;;;;;7320623;19;9515;-56
2024/01/05 13:21:58;;;;;;;;;;;19.60;73.40;;;;;;7313861;19;9615;-56
2024/01/05 13:24:32;;;;;;;;;;;19.60;73.30;;;;;;7318257;19;9270;-57
2024/01/05 13:27:02;;;;;;;;;;;19.60;73.40;;;;;;7318929;19;9322;-56
2024/01/05 13:29:31;;;;;;;;;;;19.60;73.30;;;;;;7320508;19;9826;-56
2024/01/05 13:32:00;;;;;;;;;;;19.70;73.40;;;;;;7316551;19;9489;-56
2024/01/05 13:34:29;;;;;;;;;;;19.70;73.30;;;;;;7318266;19;9465;-56
2024/01/05 13:37:02;;;;;;;;;;;19.70;73.30;;;;;;7317975;19;9382;-54
2024/01/05 13:39:39;;;;;;;;;;;19.70;73.30;;;;;;7320173;19;10401;-55
2024/01/05 13:42:08;;;;;;;;;;;19.70;73.20;;;;;;7317452;19;9523;-54
2024/01/05 13:44:37;;;;;;;;;;;19.70;73.20;;;;;;7317749;19;9518;-54
2024/01/05 13:47:06;;;;;;;;;;;19.70;73.20;;;;;;7319878;19;9482;-54
2024/01/05 13:49:35;;;;;;;;;;;19.70;73.10;;;;;;7319390;19;10386;-55
2024/01/05 13:52:04;;;;;;;;;;;19.60;73.20;;;;;;7317823;19;10959;-54
2024/01/05 13:54:36;;;;;;;;;;;19.60;73.30;;;;;;7310562;19;9236;-54
2024/01/05 13:57:05;;;;;;;;;;;19.60;73.40;;;;;;7310303;19;9267;-54
2024/01/05 13:59:35;;;;;;;;;;;19.60;73.50;;;;;;7312778;19;9657;-54
2024/01/05 14:02:05;;;;;;;;;;;19.50;73.40;;;;;;7319629;19;9653;-54
2024/01/05 14:04:54;;;;;;;;;;;19.50;73.50;;;;;;7318325;19;10393;-57
2024/01/05 14:07:23;;;;;;;;;;;19.40;73.40;;;;;;7319625;19;9606;-56
2024/01/05 14:09:55;;;;;;;;;;;19.40;73.50;;;;;;7318721;19;9292;-56
2024/01/05 14:12:23;;;;;;;;;;;19.30;73.60;;;;;;7319040;19;9541;-56
2024/01/05 14:15:13;;;;;;;;;;;19.30;73.60;;;;;;7317516;19;9216;-57
2024/01/05 14:17:42;;;;;;;;;;;19.20;73.70;;;;;;7319378;19;9919;-56
2024/01/05 14:20:13;;;;;;;;;;;19.20;73.90;;;;;;7319752;19;9217;-56
2024/01/05 14:22:42;;;;;;;;;;;19.10;73.90;;;;;;7320623;19;9532;-56
2024/01/05 14:25:14;;;;;;;;;;;19.00;73.90;;;;;;7319451;19;9309;-56
2024/01/05 14:27:43;;;;;;;;;;;19.00;73.90;;;;;;7318980;19;9238;-56
2024/01/05 14:30:13;;;;;;;;;;;18.90;74.00;;;;;;7319800;19;9498;-56
2024/01/05 14:32:42;;;;;;;;;;;18.90;74.20;;;;;;7320631;19;9487;-56
2024/01/05 14:35:11;;;;;;;;;;;18.90;74.10;;;;;;7317779;19;9222;-56
2024/01/05 14:37:39;;;;;;;;;;;18.80;74.30;;;;;;7319846;19;9549;-57
2024/01/05 14:40:31;;;;;;;;;;;18.80;74.30;;;;;;7319138;19;9244;-56
2024/01/05 14:43:00;;;;;;;;;;;18.70;74.30;;;;;;7318215;19;10735;-56
2024/01/05 14:45:29;;;;;;;;;;;18.70;74.40;;;;;;7320271;19;10698;-56
2024/01/05 14:47:58;;;;;;;;;;;18.60;74.40;;;;;;7318676;19;9374;-56
2024/01/05 14:50:26;;;;;;;;;;;18.60;74.40;;;;;;7319847;19;9253;-56
2024/01/05 14:52:56;;;;;;;;;;;18.60;74.50;;;;;;7317384;19;9243;-57